sensor_id;sensor_type;location;lat;lon;timestamp;pressure;altitude;pressure_sealevel;temperature;humidity
51603;BME280;37954;51.980;5.850;2024-01-16T00:03:17;100510.69;;;1.35;100.00
51603;BME280;37954;51.980;5.850;2024-01-16T00:07:29;100476.00;;;1.14;100.00
51603;BME280;37954;51.980;5.850;2024-01-16T00:11:44;100508.56;;;1.14;100.00
51603;BME280;37954;51.980;5.850;2024-01-16T00:15:56;100480.00;;;0.93;100.00
51603;BME280;37954;51.980;5.850;2024-01-16T00:20:11;100501.00;;;0.95;100.00
51603;BME280;37954;51.980;5.850;2024-01-16T00:24:22;100495.69;;;0.87;100.00
51603;BME280;37954;51.980;5.850;2024-01-16T00:28:35;100490.91;;;0.74;100.00
51603;BME280;37954;51.980;5.850;2024-01-16T00:32:46;100507.78;;;0.81;100.00
51603;BME280;37954;51.980;5.850;2024-01-16T00:36:58;100500.84;;;0.80;100.00
51603;BME280;37954;51.980;5.850;2024-01-16T00:41:09;100497.22;;;0.81;100.00
51603;BME280;37954;51.980;5.850;2024-01-16T00:45:21;100496.88;;;0.76;100.00
51603;BME280;37954;51.980;5.850;2024-01-16T00:49:35;100516.06;;;0.86;100.00
51603;BME280;37954;51.980;5.850;2024-01-16T00:53:47;100519.50;;;0.87;100.00
51603;BME280;37954;51.980;5.850;2024-01-16T00:57:58;100523.81;;;0.80;100.00
51603;BME280;37954;51.980;5.850;2024-01-16T01:02:10;100530.44;;;0.84;100.00
51603;BME280;37954;51.980;5.850;2024-01-16T01:06:23;100555.03;;;1.00;100.00
51603;BME280;37954;51.980;5.850;2024-01-16T01:10:35;100535.03;;;0.98;100.00
51603;BME280;37954;51.980;5.850;2024-01-16T01:14:46;100556.03;;;1.16;100.00
51603;BME280;37954;51.980;5.850;2024-01-16T01:18:58;100539.00;;;1.18;100.00
51603;BME280;37954;51.980;5.850;2024-01-16T01:23:10;100530.41;;;1.16;100.00
51603;BME280;37954;51.980;5.850;2024-01-16T01:27:22;100539.50;;;1.14;100.00
51603;BME280;37954;51.980;5.850;2024-01-16T01:31:33;100546.59;;;1.13;100.00
51603;BME280;37954;51.980;5.850;2024-01-16T01:35:45;100547.94;;;1.01;100.00
51603;BME280;37954;51.980;5.850;2024-01-16T01:39:57;100530.56;;;0.90;100.00
51603;BME280;37954;51.980;5.850;2024-01-16T01:44:08;100526.97;;;0.83;100.00
51603;BME280;37954;51.980;5.850;2024-01-16T01:48:27;100539.34;;;0.83;100.00
51603;BME280;37954;51.980;5.850;2024-01-16T01:52:40;100547.41;;;0.73;100.00
51603;BME280;37954;51.980;5.850;2024-01-16T01:56:52;100552.03;;;0.71;100.00
51603;BME280;37954;51.980;5.850;2024-01-16T02:01:05;100556.03;;;0.67;100.00
51603;BME280;37954;51.980;5.850;2024-01-16T02:05:20;100553.69;;;0.64;100.00
51603;BME280;37954;51.980;5.850;2024-01-16T02:09:32;100547.41;;;0.57;100.00
51603;BME280;37954;51.980;5.850;2024-01-16T02:13:44;100545.94;;;0.62;100.00
51603;BME280;37954;51.980;5.850;2024-01-16T02:17:57;100537.34;;;0.60;100.00
51603;BME280;37954;51.980;5.850;2024-01-16T02:22:11;100546.75;;;0.63;100.00
51603;BME280;37954;51.980;5.850;2024-01-16T02:26:26;100555.03;;;0.68;100.00
51603;BME280;37954;51.980;5.850;2024-01-16T02:30:38;100562.78;;;0.69;100.00
51603;BME280;37954;51.980;5.850;2024-01-16T02:34:49;100564.97;;;0.82;100.00
51603;BME280;37954;51.980;5.850;2024-01-16T02:39:04;100574.69;;;0.90;100.00
51603;BME280;37954;51.980;5.850;2024-01-16T02:43:17;100578.69;;;1.02;100.00
51603;BME280;37954;51.980;5.850;2024-01-16T02:47:29;100585.44;;;1.13;100.00
51603;BME280;37954;51.980;5.850;2024-01-16T02:51:41;100576.50;;;1.22;100.00
51603;BME280;37954;51.980;5.850;2024-01-16T02:55:52;100565.59;;;1.25;100.00
51603;BME280;37954;51.980;5.850;2024-01-16T03:00:04;100572.69;;;1.32;100.00
51603;BME280;37954;51.980;5.850;2024-01-16T03:04:17;100575.69;;;1.37;100.00
51603;BME280;37954;51.980;5.850;2024-01-16T03:08:28;100556.50;;;1.35;100.00
51603;BME280;37954;51.980;5.850;2024-01-16T03:12:40;100559.28;;;1.42;100.00
51603;BME280;37954;51.980;5.850;2024-01-16T03:16:52;100566.22;;;1.43;100.00
51603;BME280;37954;51.980;5.850;2024-01-16T03:21:05;100558.78;;;1.47;100.00
51603;BME280;37954;51.980;5.850;2024-01-16T03:25:18;100558.28;;;1.51;100.00
51603;BME280;37954;51.980;5.850;2024-01-16T03:29:29;100568.16;;;1.57;100.00
51603;BME280;37954;51.980;5.850;2024-01-16T03:33:41;100569.66;;;1.60;100.00
51603;BME280;37954;51.980;5.850;2024-01-16T03:37:55;100558.41;;;1.58;100.00
51603;BME280;37954;51.980;5.850;2024-01-16T03:42:07;100554.13;;;1.57;100.00
51603;BME280;37954;51.980;5.850;2024-01-16T03:46:18;100562.72;;;1.59;100.00
51603;BME280;37954;51.980;5.850;2024-01-16T03:50:30;100566.03;;;1.61;100.00
51603;BME280;37954;51.980;5.850;2024-01-16T03:54:41;100558.06;;;1.61;100.00
51603;BME280;37954;51.980;5.850;2024-01-16T03:58:53;100550.47;;;1.58;100.00
51603;BME280;37954;51.980;5.850;2024-01-16T04:03:04;100553.13;;;1.58;100.00
51603;BME280;37954;51.980;5.850;2024-01-16T04:07:16;100559.59;;;1.55;100.00
51603;BME280;37954;51.980;5.850;2024-01-16T04:11:29;100562.59;;;1.52;100.00
51603;BME280;37954;51.980;5.850;2024-01-16T04:15:40;100574.66;;;1.55;100.00
51603;BME280;37954;51.980;5.850;2024-01-16T04:19:53;100570.00;;;1.57;100.00
51603;BME280;37954;51.980;5.850;2024-01-16T04:24:04;100575.13;;;1.58;100.00
51603;BME280;37954;51.980;5.850;2024-01-16T04:28:16;100575.13;;;1.66;100.00
51603;BME280;37954;51.980;5.850;2024-01-16T04:32:27;100569.50;;;1.69;100.00
51603;BME280;37954;51.980;5.850;2024-01-16T04:36:39;100557.56;;;1.65;100.00
51603;BME280;37954;51.980;5.850;2024-01-16T04:40:51;100548.31;;;1.69;100.00
51603;BME280;37954;51.980;5.850;2024-01-16T04:45:03;100549.59;;;1.73;100.00
51603;BME280;37954;51.980;5.850;2024-01-16T04:49:15;100539.56;;;1.61;100.00
51603;BME280;37954;51.980;5.850;2024-01-16T04:53:26;100547.47;;;1.69;100.00
51603;BME280;37954;51.980;5.850;2024-01-16T04:57:38;100549.81;;;1.64;100.00
51603;BME280;37954;51.980;5.850;2024-01-16T05:01:50;100544.69;;;1.62;100.00
51603;BME280;37954;51.980;5.850;2024-01-16T05:06:02;100548.66;;;1.66;100.00
51603;BME280;37954;51.980;5.850;2024-01-16T05:10:14;100535.25;;;1.68;100.00
51603;BME280;37954;51.980;5.850;2024-01-16T05:14:25;100524.47;;;1.69;100.00
51603;BME280;37954;51.980;5.850;2024-01-16T05:18:37;100524.16;;;1.64;100.00
51603;BME280;37954;51.980;5.850;2024-01-16T05:22:49;100519.69;;;1.65;100.00
51603;BME280;37954;51.980;5.850;2024-01-16T05:27:00;100517.53;;;1.68;100.00
51603;BME280;37954;51.980;5.850;2024-01-16T05:31:13;100516.38;;;1.71;100.00
51603;BME280;37954;51.980;5.850;2024-01-16T05:35:24;100520.97;;;1.77;100.00
51603;BME280;37954;51.980;5.850;2024-01-16T05:39:36;100513.91;;;1.69;100.00
51603;BME280;37954;51.980;5.850;2024-01-16T05:43:48;100507.44;;;1.64;100.00
51603;BME280;37954;51.980;5.850;2024-01-16T05:48:00;100505.13;;;1.61;100.00
51603;BME280;37954;51.980;5.850;2024-01-16T05:52:11;100498.34;;;1.58;100.00
51603;BME280;37954;51.980;5.850;2024-01-16T05:56:23;100493.94;;;1.51;100.00
51603;BME280;37954;51.980;5.850;2024-01-16T06:00:35;100490.13;;;1.53;100.00
51603;BME280;37954;51.980;5.850;2024-01-16T06:04:46;100480.88;;;1.49;100.00
51603;BME280;37954;51.980;5.850;2024-01-16T06:08:58;100487.81;;;1.50;100.00
51603;BME280;37954;51.980;5.850;2024-01-16T06:13:14;100480.22;;;1.47;100.00
51603;BME280;37954;51.980;5.850;2024-01-16T06:17:25;100496.09;;;1.55;100.00
51603;BME280;37954;51.980;5.850;2024-01-16T06:21:37;100487.94;;;1.57;100.00
51603;BME280;37954;51.980;5.850;2024-01-16T06:25:51;100496.03;;;1.63;100.00
51603;BME280;37954;51.980;5.850;2024-01-16T06:30:02;100494.69;;;1.67;100.00
51603;BME280;37954;51.980;5.850;2024-01-16T06:34:15;100477.34;;;1.57;100.00
51603;BME280;37954;51.980;5.850;2024-01-16T06:38:27;100502.31;;;1.70;100.00
51603;BME280;37954;51.980;5.850;2024-01-16T06:42:38;100506.44;;;1.73;100.00
51603;BME280;37954;51.980;5.850;2024-01-16T06:46:50;100505.63;;;1.72;100.00
51603;BME280;37954;51.980;5.850;2024-01-16T06:51:02;100504.31;;;1.68;100.00
51603;BME280;37954;51.980;5.850;2024-01-16T06:55:14;100508.59;;;1.69;100.00
51603;BME280;37954;51.980;5.850;2024-01-16T06:59:25;100508.28;;;1.64;100.00
51603;BME280;37954;51.980;5.850;2024-01-16T07:03:37;100510.41;;;1.69;100.00
51603;BME280;37954;51.980;5.850;2024-01-16T07:07:49;100489.97;;;1.55;100.00
51603;BME280;37954;51.980;5.850;2024-01-16T07:12:00;100475.59;;;1.49;100.00
51603;BME280;37954;51.980;5.850;2024-01-16T07:16:12;100491.41;;;1.65;100.00
51603;BME280;37954;51.980;5.850;2024-01-16T07:20:24;100502.31;;;1.70;100.00
51603;BME280;37954;51.980;5.850;2024-01-16T07:24:36;100500.81;;;1.68;100.00
51603;BME280;37954;51.980;5.850;2024-01-16T07:28:47;100509.09;;;1.73;100.00
51603;BME280;37954;51.980;5.850;2024-01-16T07:32:59;100508.06;;;1.74;100.00
51603;BME280;37954;51.980;5.850;2024-01-16T07:37:11;100516.66;;;1.76;100.00
51603;BME280;37954;51.980;5.850;2024-01-16T07:41:23;100520.78;;;1.79;100.00
51603;BME280;37954;51.980;5.850;2024-01-16T07:45:34;100530.56;;;1.78;100.00
51603;BME280;37954;51.980;5.850;2024-01-16T07:49:46;100524.59;;;1.84;100.00
51603;BME280;37954;51.980;5.850;2024-01-16T07:54:09;100524.91;;;1.81;100.00
51603;BME280;37954;51.980;5.850;2024-01-16T07:58:21;100536.66;;;1.87;100.00
51603;BME280;37954;51.980;5.850;2024-01-16T08:02:32;100534.19;;;1.85;100.00
51603;BME280;37954;51.980;5.850;2024-01-16T08:06:45;100529.88;;;1.84;100.00
51603;BME280;37954;51.980;5.850;2024-01-16T08:10:57;100541.97;;;1.87;100.00
51603;BME280;37954;51.980;5.850;2024-01-16T08:15:09;100550.56;;;1.89;100.00
51603;BME280;37954;51.980;5.850;2024-01-16T08:19:21;100545.94;;;1.83;100.00
51603;BME280;37954;51.980;5.850;2024-01-16T08:23:34;100546.91;;;1.90;100.00
51603;BME280;37954;51.980;5.850;2024-01-16T08:27:46;100543.78;;;1.86;100.00
51603;BME280;37954;51.980;5.850;2024-01-16T08:31:57;100538.66;;;1.85;100.00
51603;BME280;37954;51.980;5.850;2024-01-16T08:36:09;100530.72;;;1.85;100.00
51603;BME280;37954;51.980;5.850;2024-01-16T08:40:20;100545.09;;;1.90;100.00
51603;BME280;37954;51.980;5.850;2024-01-16T08:44:32;100533.34;;;1.85;100.00
51603;BME280;37954;51.980;5.850;2024-01-16T08:48:44;100533.03;;;1.88;100.00
51603;BME280;37954;51.980;5.850;2024-01-16T08:52:56;100546.03;;;1.97;100.00
51603;BME280;37954;51.980;5.850;2024-01-16T08:57:07;100550.34;;;1.98;100.00
51603;BME280;37954;51.980;5.850;2024-01-16T09:01:21;100547.88;;;1.97;100.00
51603;BME280;37954;51.980;5.850;2024-01-16T09:05:33;100540.91;;;1.96;100.00
51603;BME280;37954;51.980;5.850;2024-01-16T09:09:48;100545.22;;;1.97;100.00
51603;BME280;37954;51.980;5.850;2024-01-16T09:13:59;100545.88;;;1.91;100.00
51603;BME280;37954;51.980;5.850;2024-01-16T09:18:15;100536.78;;;1.93;100.00
51603;BME280;37954;51.980;5.850;2024-01-16T09:22:27;100529.00;;;1.92;100.00
51603;BME280;37954;51.980;5.850;2024-01-16T09:26:39;100530.97;;;1.98;100.00
51603;BME280;37954;51.980;5.850;2024-01-16T09:30:51;100515.25;;;1.96;100.00
51603;BME280;37954;51.980;5.850;2024-01-16T09:35:03;100531.19;;;2.19;100.00
51603;BME280;37954;51.980;5.850;2024-01-16T09:39:16;100532.44;;;2.31;99.87
51603;BME280;37954;51.980;5.850;2024-01-16T09:43:31;100533.25;;;2.40;99.93
51603;BME280;37954;51.980;5.850;2024-01-16T09:47:43;100513.13;;;2.45;99.09
51603;BME280;37954;51.980;5.850;2024-01-16T09:51:56;100536.53;;;2.65;98.21
51603;BME280;37954;51.980;5.850;2024-01-16T09:56:15;100531.41;;;2.63;98.11
51603;BME280;37954;51.980;5.850;2024-01-16T10:00:28;100508.19;;;2.42;97.86
51603;BME280;37954;51.980;5.850;2024-01-16T10:04:41;100488.91;;;2.26;97.13
51603;BME280;37954;51.980;5.850;2024-01-16T10:08:53;100528.22;;;2.45;96.96
51603;BME280;37954;51.980;5.850;2024-01-16T10:13:05;100520.56;;;2.50;96.38
51603;BME280;37954;51.980;5.850;2024-01-16T10:17:17;100520.06;;;2.55;96.23
51603;BME280;37954;51.980;5.850;2024-01-16T10:21:29;100518.81;;;2.65;96.15
51603;BME280;37954;51.980;5.850;2024-01-16T10:25:43;100521.88;;;2.77;96.41
51603;BME280;37954;51.980;5.850;2024-01-16T10:29:58;100511.19;;;2.85;95.63
51603;BME280;37954;51.980;5.850;2024-01-16T10:34:19;100500.88;;;2.90;94.51
51603;BME280;37954;51.980;5.850;2024-01-16T10:38:32;100505.28;;;3.12;94.65
51603;BME280;37954;51.980;5.850;2024-01-16T10:42:45;100477.09;;;2.97;94.54
51603;BME280;37954;51.980;5.850;2024-01-16T10:47:09;100500.81;;;3.13;93.31
51603;BME280;37954;51.980;5.850;2024-01-16T10:51:22;100511.09;;;3.31;92.57
51603;BME280;37954;51.980;5.850;2024-01-16T10:55:42;100503.59;;;3.49;91.55
51603;BME280;37954;51.980;5.850;2024-01-16T11:00:02;100504.06;;;3.53;90.12
51603;BME280;37954;51.980;5.850;2024-01-16T11:04:16;100497.00;;;3.74;90.13
51603;BME280;37954;51.980;5.850;2024-01-16T11:08:29;100498.50;;;4.13;90.26
51603;BME280;37954;51.980;5.850;2024-01-16T11:12:45;100505.66;;;4.34;89.84
51603;BME280;37954;51.980;5.850;2024-01-16T11:16:58;100500.78;;;4.37;87.92
51603;BME280;37954;51.980;5.850;2024-01-16T11:21:13;100494.53;;;4.45;87.45
51603;BME280;37954;51.980;5.850;2024-01-16T11:25:33;100474.19;;;4.80;86.74
51603;BME280;37954;51.980;5.850;2024-01-16T11:29:49;100476.38;;;5.25;86.21
51603;BME280;37954;51.980;5.850;2024-01-16T11:38:57;100448.56;;;5.76;81.08
51603;BME280;37954;51.980;5.850;2024-01-16T11:47:45;100441.47;;;5.55;77.17
51603;BME280;37954;51.980;5.850;2024-01-16T11:51:56;100442.94;;;5.57;76.43
51603;BME280;37954;51.980;5.850;2024-01-16T11:56:34;100443.84;;;5.71;77.14
51603;BME280;37954;51.980;5.850;2024-01-16T12:00:57;100444.78;;;5.57;75.72
51603;BME280;37954;51.980;5.850;2024-01-16T12:05:13;100450.78;;;5.72;76.34
51603;BME280;37954;51.980;5.850;2024-01-16T12:09:27;100448.00;;;5.87;76.31
51603;BME280;37954;51.980;5.850;2024-01-16T12:13:38;100453.69;;;5.77;75.32
51603;BME280;37954;51.980;5.850;2024-01-16T12:18:00;100447.44;;;5.57;74.85
51603;BME280;37954;51.980;5.850;2024-01-16T12:22:13;100459.09;;;5.49;75.13
51603;BME280;37954;51.980;5.850;2024-01-16T12:26:25;100439.09;;;5.25;74.99
51603;BME280;37954;51.980;5.850;2024-01-16T12:30:37;100422.28;;;5.25;74.73
51603;BME280;37954;51.980;5.850;2024-01-16T12:34:49;100419.63;;;5.25;75.16
51603;BME280;37954;51.980;5.850;2024-01-16T12:39:01;100406.81;;;5.42;75.81
51603;BME280;37954;51.980;5.850;2024-01-16T12:43:13;100410.91;;;5.44;75.22
51603;BME280;37954;51.980;5.850;2024-01-16T12:47:25;100404.75;;;5.44;75.21
51603;BME280;37954;51.980;5.850;2024-01-16T12:51:37;100391.78;;;5.28;74.57
51603;BME280;37954;51.980;5.850;2024-01-16T12:55:57;100380.59;;;5.04;74.39
51603;BME280;37954;51.980;5.850;2024-01-16T13:00:25;100379.06;;;4.88;74.44
51603;BME280;37954;51.980;5.850;2024-01-16T13:04:38;100382.03;;;4.72;74.42
51603;BME280;37954;51.980;5.850;2024-01-16T13:08:50;100385.47;;;4.66;75.11
51603;BME280;37954;51.980;5.850;2024-01-16T13:13:17;100382.28;;;4.49;75.18
51603;BME280;37954;51.980;5.850;2024-01-16T13:17:28;100377.84;;;4.35;75.44
51603;BME280;37954;51.980;5.850;2024-01-16T13:21:41;100376.41;;;4.33;76.09
51603;BME280;37954;51.980;5.850;2024-01-16T13:31:38;100382.69;;;4.25;76.16
51603;BME280;37954;51.980;5.850;2024-01-16T13:35:50;100379.53;;;4.15;76.43
51603;BME280;37954;51.980;5.850;2024-01-16T13:40:05;100370.47;;;4.09;76.48
51603;BME280;37954;51.980;5.850;2024-01-16T13:44:20;100368.91;;;4.15;77.11
51603;BME280;37954;51.980;5.850;2024-01-16T13:48:32;100376.88;;;4.15;76.78
51603;BME280;37954;51.980;5.850;2024-01-16T13:52:44;100358.47;;;4.13;76.93
51603;BME280;37954;51.980;5.850;2024-01-16T13:56:55;100359.41;;;4.06;76.78
51603;BME280;37954;51.980;5.850;2024-01-16T14:01:18;100359.03;;;4.09;77.30
51603;BME280;37954;51.980;5.850;2024-01-16T14:05:31;100362.25;;;4.04;77.47
51603;BME280;37954;51.980;5.850;2024-01-16T14:09:43;100353.63;;;4.02;77.51
51603;BME280;37954;51.980;5.850;2024-01-16T14:13:56;100325.22;;;3.81;77.34
51603;BME280;37954;51.980;5.850;2024-01-16T14:18:08;100329.28;;;3.77;77.48
51603;BME280;37954;51.980;5.850;2024-01-16T14:22:20;100315.63;;;3.59;77.01
51603;BME280;37954;51.980;5.850;2024-01-16T14:26:32;100337.63;;;3.74;77.32
51603;BME280;37954;51.980;5.850;2024-01-16T14:30:44;100315.72;;;3.51;77.41
51603;BME280;37954;51.980;5.850;2024-01-16T14:34:56;100302.63;;;3.28;77.45
51603;BME280;37954;51.980;5.850;2024-01-16T14:39:08;100323.53;;;3.38;77.77
51603;BME280;37954;51.980;5.850;2024-01-16T14:43:29;100326.97;;;3.17;77.76
51603;BME280;37954;51.980;5.850;2024-01-16T14:47:41;100315.88;;;3.13;77.74
51603;BME280;37954;51.980;5.850;2024-01-16T14:51:53;100320.84;;;3.02;77.81
51603;BME280;37954;51.980;5.850;2024-01-16T14:56:05;100280.16;;;2.80;77.88
51603;BME280;37954;51.980;5.850;2024-01-16T15:00:16;100297.25;;;2.77;78.24
51603;BME280;37954;51.980;5.850;2024-01-16T15:04:31;100307.88;;;2.77;78.35
51603;BME280;37954;51.980;5.850;2024-01-16T15:08:44;100319.31;;;2.78;78.68
51603;BME280;37954;51.980;5.850;2024-01-16T15:12:56;100319.78;;;2.67;78.93
51603;BME280;37954;51.980;5.850;2024-01-16T15:17:07;100316.81;;;2.62;78.93
51603;BME280;37954;51.980;5.850;2024-01-16T15:21:19;100293.31;;;2.44;79.60
51603;BME280;37954;51.980;5.850;2024-01-16T15:25:31;100310.16;;;2.51;79.32
51603;BME280;37954;51.980;5.850;2024-01-16T15:29:43;100312.16;;;2.49;79.89
51603;BME280;37954;51.980;5.850;2024-01-16T15:33:55;100285.28;;;2.23;79.95
51603;BME280;37954;51.980;5.850;2024-01-16T15:38:07;100313.69;;;2.29;80.33
51603;BME280;37954;51.980;5.850;2024-01-16T15:42:19;100313.78;;;2.21;80.47
51603;BME280;37954;51.980;5.850;2024-01-16T15:46:31;100291.72;;;2.05;80.34
51603;BME280;37954;51.980;5.850;2024-01-16T15:50:42;100305.97;;;2.04;80.90
51603;BME280;37954;51.980;5.850;2024-01-16T15:54:54;100319.22;;;2.04;80.97
51603;BME280;37954;51.980;5.850;2024-01-16T15:59:06;100313.97;;;1.96;80.90
51603;BME280;37954;51.980;5.850;2024-01-16T16:03:18;100306.69;;;1.75;81.16
51603;BME280;37954;51.980;5.850;2024-01-16T16:07:32;100312.22;;;1.66;81.15
51603;BME280;37954;51.980;5.850;2024-01-16T16:11:55;100332.50;;;1.73;81.65
51603;BME280;37954;51.980;5.850;2024-01-16T16:21:22;100323.81;;;1.65;82.17
51603;BME280;37954;51.980;5.850;2024-01-16T16:25:34;100300.41;;;1.54;82.37
51603;BME280;37954;51.980;5.850;2024-01-16T16:29:46;100316.63;;;1.73;82.54
51603;BME280;37954;51.980;5.850;2024-01-16T16:34:06;100315.81;;;1.73;82.83
51603;BME280;37954;51.980;5.850;2024-01-16T16:38:18;100312.94;;;1.83;82.95
51603;BME280;37954;51.980;5.850;2024-01-16T16:42:31;100299.00;;;1.89;82.21
51603;BME280;37954;51.980;5.850;2024-01-16T16:46:42;100336.50;;;2.15;82.41
51603;BME280;37954;51.980;5.850;2024-01-16T16:50:54;100327.84;;;2.21;82.18
51603;BME280;37954;51.980;5.850;2024-01-16T16:55:06;100274.53;;;2.01;81.81
51603;BME280;37954;51.980;5.850;2024-01-16T16:59:18;100276.19;;;2.02;81.63
51603;BME280;37954;51.980;5.850;2024-01-16T17:03:29;100312.13;;;2.20;80.81
51603;BME280;37954;51.980;5.850;2024-01-16T17:07:45;100306.72;;;2.13;80.83
51603;BME280;37954;51.980;5.850;2024-01-16T17:11:57;100310.53;;;2.10;80.96
51603;BME280;37954;51.980;5.850;2024-01-16T17:16:09;100303.16;;;2.06;81.08
51603;BME280;37954;51.980;5.850;2024-01-16T17:20:21;100304.38;;;1.95;80.90
51603;BME280;37954;51.980;5.850;2024-01-16T17:24:33;100278.75;;;1.73;80.61
51603;BME280;37954;51.980;5.850;2024-01-16T17:28:46;100286.63;;;1.81;81.08
51603;BME280;37954;51.980;5.850;2024-01-16T17:32:57;100288.97;;;1.76;81.11
51603;BME280;37954;51.980;5.850;2024-01-16T17:37:09;100294.44;;;1.74;81.33
51603;BME280;37954;51.980;5.850;2024-01-16T17:41:21;100290.34;;;1.72;81.29
51603;BME280;37954;51.980;5.850;2024-01-16T17:45:37;100244.75;;;1.39;81.32
51603;BME280;37954;51.980;5.850;2024-01-16T17:49:49;100250.63;;;1.49;81.44
51603;BME280;37954;51.980;5.850;2024-01-16T17:54:02;100238.09;;;1.43;81.51
51603;BME280;37954;51.980;5.850;2024-01-16T17:58:13;100215.22;;;1.27;81.56
51603;BME280;37954;51.980;5.850;2024-01-16T18:02:27;100252.81;;;1.46;81.21
51603;BME280;37954;51.980;5.850;2024-01-16T18:06:38;100220.59;;;1.19;81.56
51603;BME280;37954;51.980;5.850;2024-01-16T18:10:50;100252.00;;;1.45;81.90
51603;BME280;37954;51.980;5.850;2024-01-16T18:15:08;100254.03;;;1.58;82.37
51603;BME280;37954;51.980;5.850;2024-01-16T18:19:24;100254.34;;;1.63;82.29
51603;BME280;37954;51.980;5.850;2024-01-16T18:23:39;100233.69;;;1.58;82.05
51603;BME280;37954;51.980;5.850;2024-01-16T18:27:52;100237.53;;;1.56;81.83
51603;BME280;37954;51.980;5.850;2024-01-16T18:32:04;100223.53;;;1.47;81.92
51603;BME280;37954;51.980;5.850;2024-01-16T18:36:18;100209.72;;;1.37;82.03
51603;BME280;37954;51.980;5.850;2024-01-16T18:40:31;100206.78;;;1.32;81.67
51603;BME280;37954;51.980;5.850;2024-01-16T18:44:43;100193.66;;;1.16;81.40
51603;BME280;37954;51.980;5.850;2024-01-16T18:48:56;100218.06;;;1.26;81.70
51603;BME280;37954;51.980;5.850;2024-01-16T18:53:11;100180.59;;;0.91;81.37
51603;BME280;37954;51.980;5.850;2024-01-16T18:57:25;100170.50;;;0.95;82.08
51603;BME280;37954;51.980;5.850;2024-01-16T19:01:42;100179.00;;;1.05;82.14
51603;BME280;37954;51.980;5.850;2024-01-16T19:05:57;100168.91;;;1.09;82.25
51603;BME280;37954;51.980;5.850;2024-01-16T19:10:12;100215.28;;;1.42;82.27
51603;BME280;37954;51.980;5.850;2024-01-16T19:14:24;100170.63;;;1.24;81.71
51603;BME280;37954;51.980;5.850;2024-01-16T19:18:37;100154.56;;;1.26;81.77
51603;BME280;37954;51.980;5.850;2024-01-16T19:22:52;100162.16;;;1.29;81.57
51603;BME280;37954;51.980;5.850;2024-01-16T19:27:09;100149.09;;;1.27;81.50
51603;BME280;37954;51.980;5.850;2024-01-16T19:31:20;100167.09;;;1.32;81.32
51603;BME280;37954;51.980;5.850;2024-01-16T19:35:37;100162.44;;;1.11;80.61
51603;BME280;37954;51.980;5.850;2024-01-16T19:39:51;100180.31;;;1.09;80.40
51603;BME280;37954;51.980;5.850;2024-01-16T19:44:07;100139.88;;;0.78;80.54
51603;BME280;37954;51.980;5.850;2024-01-16T19:48:19;100153.09;;;0.78;80.56
51603;BME280;37954;51.980;5.850;2024-01-16T19:52:35;100121.06;;;0.50;80.93
51603;BME280;37954;51.980;5.850;2024-01-16T19:56:47;100138.34;;;0.52;81.35
51603;BME280;37954;51.980;5.850;2024-01-16T20:00:59;100160.59;;;0.66;81.21
51603;BME280;37954;51.980;5.850;2024-01-16T20:05:14;100132.47;;;0.42;81.46
51603;BME280;37954;51.980;5.850;2024-01-16T20:09:27;100104.19;;;0.20;81.47
51603;BME280;37954;51.980;5.850;2024-01-16T20:13:39;100134.63;;;0.39;81.69
51603;BME280;37954;51.980;5.850;2024-01-16T20:17:51;100144.03;;;0.41;81.82
51603;BME280;37954;51.980;5.850;2024-01-16T20:22:05;100135.69;;;0.29;82.31
51603;BME280;37954;51.980;5.850;2024-01-16T20:26:19;100148.06;;;0.29;82.68
51603;BME280;37954;51.980;5.850;2024-01-16T20:30:33;100145.44;;;0.21;82.38
51603;BME280;37954;51.980;5.850;2024-01-16T20:34:50;100102.63;;;-0.06;83.09
51603;BME280;37954;51.980;5.850;2024-01-16T20:39:02;100113.28;;;0.17;82.99
51603;BME280;37954;51.980;5.850;2024-01-16T20:43:14;100111.59;;;0.24;83.29
51603;BME280;37954;51.980;5.850;2024-01-16T20:47:25;100117.66;;;0.33;83.50
51603;BME280;37954;51.980;5.850;2024-01-16T20:51:43;100106.28;;;0.32;83.57
51603;BME280;37954;51.980;5.850;2024-01-16T20:55:55;100119.09;;;0.44;83.62
51603;BME280;37954;51.980;5.850;2024-01-16T21:00:07;100086.19;;;0.23;83.44
51603;BME280;37954;51.980;5.850;2024-01-16T21:04:26;100105.91;;;0.35;83.29
51603;BME280;37954;51.980;5.850;2024-01-16T21:08:38;100096.72;;;0.31;83.45
51603;BME280;37954;51.980;5.850;2024-01-16T21:12:50;100095.88;;;0.31;83.15
51603;BME280;37954;51.980;5.850;2024-01-16T21:17:01;100086.44;;;0.37;83.49
51603;BME280;37954;51.980;5.850;2024-01-16T21:21:24;100085.09;;;0.41;83.77
51603;BME280;37954;51.980;5.850;2024-01-16T21:25:44;100051.91;;;0.15;83.15
51603;BME280;37954;51.980;5.850;2024-01-16T21:29:56;100068.34;;;0.25;83.25
51603;BME280;37954;51.980;5.850;2024-01-16T21:34:08;100053.56;;;0.16;83.16
51603;BME280;37954;51.980;5.850;2024-01-16T21:38:19;100033.53;;;-0.09;83.20
51603;BME280;37954;51.980;5.850;2024-01-16T21:42:32;100047.13;;;0.11;83.06
51603;BME280;37954;51.980;5.850;2024-01-16T21:46:46;100028.25;;;-0.09;83.09
51603;BME280;37954;51.980;5.850;2024-01-16T21:51:00;100009.69;;;-0.24;82.84
51603;BME280;37954;51.980;5.850;2024-01-16T21:55:12;100025.69;;;-0.25;83.23
51603;BME280;37954;51.980;5.850;2024-01-16T21:59:24;100042.28;;;-0.09;83.42
51603;BME280;37954;51.980;5.850;2024-01-16T22:03:37;100031.41;;;-0.14;83.47
51603;BME280;37954;51.980;5.850;2024-01-16T22:07:49;100001.78;;;-0.32;83.56
51603;BME280;37954;51.980;5.850;2024-01-16T22:12:01;99987.34;;;-0.44;83.68
51603;BME280;37954;51.980;5.850;2024-01-16T22:16:13;99978.13;;;-0.48;83.73
51603;BME280;37954;51.980;5.850;2024-01-16T22:20:25;99991.13;;;-0.39;83.71
51603;BME280;37954;51.980;5.850;2024-01-16T22:24:41;99968.91;;;-0.52;83.86
51603;BME280;37954;51.980;5.850;2024-01-16T22:28:53;99986.00;;;-0.40;84.31
51603;BME280;37954;51.980;5.850;2024-01-16T22:33:04;99982.88;;;-0.44;84.17